Time;durP1;ratioP1;P1;durP2;ratioP2;P2;SDS_P1;SDS_P2;PMS_P1;PMS_P2;Temp;Humidity;BMP_temperature;BMP_pressure;BME280_temperature;BME280_humidity;BME280_pressure;Samples;Min_cycle;Max_cycle;Signal;HPM_P1;HPM_P2
2022/10/24 00:02:06;;;;;;;;;;;;;;;15.39;76.78;97776.25;5062607;28;20369;-58
2022/10/24 00:04:36;;;;;;;;;;;;;;;15.44;76.55;97773.22;5052339;28;19924;-60
2022/10/24 00:07:05;;;;;;;;;;;;;;;15.40;76.38;97760.59;5075433;28;20019;-60
2022/10/24 00:09:33;;;;;;;;;;;;;;;15.36;76.50;97774.19;5063237;28;20320;-60
2022/10/24 00:12:01;;;;;;;;;;;;;;;15.40;76.19;97777.81;5074120;28;19928;-60
2022/10/24 00:14:29;;;;;;;;;;;;;;;15.35;76.53;97777.28;5073659;28;19925;-59
2022/10/24 00:16:57;;;;;;;;;;;;;;;15.35;76.12;97769.06;5069570;28;19924;-59
2022/10/24 00:19:25;;;;;;;;;;;;;;;15.32;76.23;97781.47;5072940;28;19935;-60
2022/10/24 00:21:55;;;;;;;;;;;;;;;15.29;76.34;97775.91;5074096;28;20368;-59
2022/10/24 00:24:24;;;;;;;;;;;;;;;15.22;76.38;97768.28;5071229;28;19931;-60
2022/10/24 00:26:51;;;;;;;;;;;;;;;15.22;76.35;97765.53;5071223;28;19924;-60
2022/10/24 00:29:19;;;;;;;;;;;;;;;15.19;76.33;97763.50;5071873;28;19924;-59
2022/10/24 00:31:48;;;;;;;;;;;;;;;15.13;76.60;97760.22;5068637;28;19924;-60
2022/10/24 00:34:16;;;;;;;;;;;;;;;15.09;76.55;97755.75;5073621;28;19925;-60
2022/10/24 00:36:44;;;;;;;;;;;;;;;15.04;77.03;97761.47;5073116;28;19947;-60
2022/10/24 00:39:39;;;;;;;;;;;;;;;15.04;77.07;97777.88;5072093;28;19925;-60
2022/10/24 00:42:11;;;;;;;;;;;;;;;14.99;77.25;97775.38;5073409;28;19928;-60
2022/10/24 00:44:39;;;;;;;;;;;;;;;14.95;77.60;97775.25;5074218;28;19925;-61
2022/10/24 00:47:08;;;;;;;;;;;;;;;14.89;77.88;97777.44;5069381;28;19995;-61
2022/10/24 00:49:37;;;;;;;;;;;;;;;14.84;78.09;97785.06;5073303;28;19971;-60
2022/10/24 00:52:07;;;;;;;;;;;;;;;14.80;78.44;97786.88;5073595;28;20378;-60
2022/10/24 00:54:35;;;;;;;;;;;;;;;14.77;78.58;97780.19;5072957;28;20023;-59
2022/10/24 00:57:03;;;;;;;;;;;;;;;14.79;78.56;97777.88;5051878;28;19932;-60
2022/10/24 00:59:33;;;;;;;;;;;;;;;14.76;78.60;97775.84;5050141;28;20394;-60
2022/10/24 01:02:00;;;;;;;;;;;;;;;14.75;78.85;97784.38;5046242;28;19956;-59
2022/10/24 01:04:28;;;;;;;;;;;;;;;14.71;79.15;97786.22;5048152;28;19929;-60
2022/10/24 01:07:01;;;;;;;;;;;;;;;14.65;79.44;97780.97;5052413;28;19955;-60
2022/10/24 01:09:32;;;;;;;;;;;;;;;14.68;79.20;97780.28;5049721;28;19925;-59
2022/10/24 01:12:03;;;;;;;;;;;;;;;14.67;79.38;97786.88;5051634;28;19983;-59
2022/10/24 01:14:34;;;;;;;;;;;;;;;14.65;79.43;97791.91;5053254;28;19947;-61
2022/10/24 01:17:04;;;;;;;;;;;;;;;14.68;79.38;97796.69;5038467;28;19936;-60
2022/10/24 01:19:42;;;;;;;;;;;;;;;14.71;79.39;97802.63;5041642;28;19947;-59
2022/10/24 01:22:11;;;;;;;;;;;;;;;14.72;79.30;97798.75;5035893;28;19925;-60
2022/10/24 01:24:43;;;;;;;;;;;;;;;14.73;79.52;97798.41;5030678;28;19979;-60
2022/10/24 01:27:22;;;;;;;;;;;;;;;14.70;79.94;97807.31;5032560;28;19971;-60
2022/10/24 01:29:56;;;;;;;;;;;;;;;14.67;79.90;97810.69;5032596;28;19932;-60
2022/10/24 01:32:29;;;;;;;;;;;;;;;14.68;79.98;97804.09;5026844;28;20024;-59
2022/10/24 01:34:57;;;;;;;;;;;;;;;14.68;80.23;97804.88;5032650;28;19929;-61
2022/10/24 01:37:25;;;;;;;;;;;;;;;14.65;80.27;97807.53;5033214;28;20390;-60
2022/10/24 01:39:56;;;;;;;;;;;;;;;14.64;80.33;97803.16;5025727;28;19925;-60
2022/10/24 01:42:24;;;;;;;;;;;;;;;14.64;80.44;97811.38;5064198;28;19929;-59
2022/10/24 01:44:53;;;;;;;;;;;;;;;14.60;80.62;97808.53;5032550;28;19925;-60
2022/10/24 01:47:23;;;;;;;;;;;;;;;14.62;80.74;97805.44;5029636;28;19929;-59
2022/10/24 01:49:52;;;;;;;;;;;;;;;14.61;80.61;97799.19;5033017;28;19933;-59
2022/10/24 01:52:20;;;;;;;;;;;;;;;14.64;80.69;97798.50;5032650;28;20272;-61
2022/10/24 01:54:48;;;;;;;;;;;;;;;14.63;80.40;97796.09;5029198;28;19929;-59
2022/10/24 01:57:16;;;;;;;;;;;;;;;14.64;80.31;97792.22;5049806;28;20023;-60
2022/10/24 01:59:52;;;;;;;;;;;;;;;14.64;80.06;97784.81;5051738;28;19924;-60
2022/10/24 02:02:21;;;;;;;;;;;;;;;14.60;80.41;97775.72;5048596;28;19925;-59
2022/10/24 02:04:53;;;;;;;;;;;;;;;14.62;80.09;97789.03;5052271;28;20289;-60
2022/10/24 02:07:21;;;;;;;;;;;;;;;14.66;79.95;97781.75;5052170;28;19928;-60
2022/10/24 02:09:50;;;;;;;;;;;;;;;14.62;79.99;97783.59;5052758;28;19925;-60
2022/10/24 02:12:18;;;;;;;;;;;;;;;14.64;79.75;97782.09;5053853;28;20729;-61
2022/10/24 02:14:46;;;;;;;;;;;;;;;14.62;79.98;97786.31;5053341;28;19948;-60
2022/10/24 02:17:14;;;;;;;;;;;;;;;14.61;80.12;97782.00;5046352;28;19929;-60
2022/10/24 02:19:42;;;;;;;;;;;;;;;14.59;80.01;97779.56;5051272;28;20024;-60
2022/10/24 02:22:14;;;;;;;;;;;;;;;14.56;80.23;97774.81;5051737;28;19929;-61
2022/10/24 02:24:42;;;;;;;;;;;;;;;14.52;80.36;97775.81;5049197;28;20366;-58
2022/10/24 02:27:12;;;;;;;;;;;;;;;14.47;80.59;97776.00;5084067;28;19924;-60
2022/10/24 02:29:40;;;;;;;;;;;;;;;14.44;80.64;97773.97;5050915;28;20263;-58
2022/10/24 02:32:10;;;;;;;;;;;;;;;14.40;80.52;97776.56;5047920;28;20425;-60
2022/10/24 02:34:38;;;;;;;;;;;;;;;14.36;80.95;97768.25;5050511;28;19924;-60
2022/10/24 02:37:31;;;;;;;;;;;;;;;14.36;80.84;97772.91;5050429;28;19925;-60
2022/10/24 02:40:04;;;;;;;;;;;;;;;14.36;80.68;97764.72;5050332;28;19932;-61
2022/10/24 02:42:32;;;;;;;;;;;;;;;14.30;80.78;97766.09;5049507;28;19925;-60
2022/10/24 02:45:00;;;;;;;;;;;;;;;14.27;81.07;97772.22;5051659;28;19925;-59
2022/10/24 02:47:29;;;;;;;;;;;;;;;14.25;81.15;97766.31;5048462;28;19929;-60
2022/10/24 02:49:57;;;;;;;;;;;;;;;14.20;81.36;97772.78;5050081;28;20290;-60
2022/10/24 02:52:25;;;;;;;;;;;;;;;14.20;81.69;97777.44;5047460;28;20023;-60
2022/10/24 02:54:53;;;;;;;;;;;;;;;14.21;81.54;97779.03;5048082;28;19932;-59
2022/10/24 02:57:24;;;;;;;;;;;;;;;14.22;81.58;97775.97;5050743;28;20354;-59
2022/10/24 02:59:51;;;;;;;;;;;;;;;14.16;81.95;97780.84;5045338;28;19925;-60
2022/10/24 03:02:19;;;;;;;;;;;;;;;14.19;81.79;97773.91;5041439;28;19944;-59
2022/10/24 03:04:47;;;;;;;;;;;;;;;14.17;81.64;97778.94;5053150;28;19929;-60
2022/10/24 03:07:15;;;;;;;;;;;;;;;14.14;82.01;97774.94;5036147;28;20439;-60
2022/10/24 03:09:43;;;;;;;;;;;;;;;14.15;81.86;97784.72;5046942;28;19963;-60
2022/10/24 03:12:11;;;;;;;;;;;;;;;14.10;81.95;97790.38;5050504;28;19935;-60
2022/10/24 03:14:40;;;;;;;;;;;;;;;14.02;82.49;97787.75;5050143;28;19924;-59
2022/10/24 03:17:08;;;;;;;;;;;;;;;14.09;82.14;97780.59;5033600;28;19947;-60
2022/10/24 03:19:37;;;;;;;;;;;;;;;14.09;82.25;97771.63;5067730;28;19951;-60
2022/10/24 03:22:05;;;;;;;;;;;;;;;14.08;82.13;97775.47;5050548;28;19932;-60
2022/10/24 03:24:32;;;;;;;;;;;;;;;14.04;82.12;97777.28;5048697;28;19925;-63
2022/10/24 03:27:10;;;;;;;;;;;;;;;13.99;82.33;97778.28;5050416;28;19925;-60
2022/10/24 03:29:38;;;;;;;;;;;;;;;13.96;82.43;97773.53;5050274;28;19928;-60
2022/10/24 03:32:08;;;;;;;;;;;;;;;13.93;82.67;97767.91;5060054;28;19925;-59
2022/10/24 03:34:36;;;;;;;;;;;;;;;13.93;82.63;97784.31;5067861;28;19925;-60
2022/10/24 03:37:29;;;;;;;;;;;;;;;13.85;82.98;97775.88;5069528;28;20026;-59
2022/10/24 03:39:57;;;;;;;;;;;;;;;13.88;82.92;97782.59;5070807;28;20277;-60
2022/10/24 03:42:31;;;;;;;;;;;;;;;13.84;83.15;97789.84;5070315;28;19924;-59
2022/10/24 03:44:59;;;;;;;;;;;;;;;13.83;82.96;97790.97;5070348;28;19924;-60
2022/10/24 03:47:28;;;;;;;;;;;;;;;13.82;83.16;97794.84;5064715;28;19955;-60
2022/10/24 03:49:56;;;;;;;;;;;;;;;13.75;83.78;97800.84;5070713;28;19924;-59
2022/10/24 03:52:24;;;;;;;;;;;;;;;13.74;83.85;97796.53;5071570;28;19936;-59
2022/10/24 03:54:53;;;;;;;;;;;;;;;13.77;83.70;97800.50;5052458;28;20346;-59
2022/10/24 03:57:22;;;;;;;;;;;;;;;13.76;83.73;97796.19;5069223;28;19936;-60
2022/10/24 03:59:50;;;;;;;;;;;;;;;13.75;83.74;97786.41;5070493;28;19928;-59
2022/10/24 04:02:20;;;;;;;;;;;;;;;13.73;83.81;97780.47;5065755;28;19925;-59
2022/10/24 04:04:49;;;;;;;;;;;;;;;13.69;84.31;97774.91;5051940;28;19951;-60
2022/10/24 04:07:17;;;;;;;;;;;;;;;13.72;83.95;97773.41;5070137;28;20414;-61
2022/10/24 04:09:44;;;;;;;;;;;;;;;13.75;84.03;97767.31;5072822;28;20027;-59
2022/10/24 04:12:13;;;;;;;;;;;;;;;13.79;83.80;97763.53;5056378;28;19932;-60
2022/10/24 04:14:41;;;;;;;;;;;;;;;13.81;83.53;97772.22;5071192;28;19967;-60
2022/10/24 04:17:08;;;;;;;;;;;;;;;13.79;83.58;97771.72;5046844;28;19925;-61
2022/10/24 04:19:36;;;;;;;;;;;;;;;13.77;83.85;97775.94;5069056;28;20278;-60
2022/10/24 04:22:08;;;;;;;;;;;;;;;13.79;83.64;97784.59;5069110;28;19924;-60
2022/10/24 04:24:38;;;;;;;;;;;;;;;13.80;83.72;97786.22;5051667;28;20326;-60
2022/10/24 04:27:06;;;;;;;;;;;;;;;13.77;83.90;97786.88;5068812;28;19925;-58
2022/10/24 04:29:34;;;;;;;;;;;;;;;13.78;83.79;97783.00;5069329;28;20302;-59
2022/10/24 04:32:02;;;;;;;;;;;;;;;13.78;83.94;97783.78;5064804;28;19924;-60
2022/10/24 04:34:30;;;;;;;;;;;;;;;13.82;83.75;97783.94;5068862;28;19925;-59
2022/10/24 04:36:58;;;;;;;;;;;;;;;13.79;83.88;97784.59;5066999;28;20023;-60
2022/10/24 04:39:27;;;;;;;;;;;;;;;13.83;83.63;97785.53;5072560;28;20337;-59
2022/10/24 04:41:57;;;;;;;;;;;;;;;13.84;83.39;97781.66;5073817;28;19928;-60
2022/10/24 04:44:25;;;;;;;;;;;;;;;13.81;83.65;97787.78;5074396;28;19924;-60
2022/10/24 04:46:53;;;;;;;;;;;;;;;13.83;83.54;97785.53;5069799;28;19972;-60
2022/10/24 04:49:21;;;;;;;;;;;;;;;13.85;83.44;97775.88;5073406;28;19924;-60
2022/10/24 04:51:49;;;;;;;;;;;;;;;13.86;83.54;97779.41;5064769;28;19939;-60
2022/10/24 04:54:17;;;;;;;;;;;;;;;13.85;83.68;97788.72;5070583;28;19925;-60
2022/10/24 04:56:46;;;;;;;;;;;;;;;13.86;83.51;97772.00;5072047;28;19925;-59
2022/10/24 04:59:14;;;;;;;;;;;;;;;13.87;83.40;97770.06;5072984;28;20258;-61
2022/10/24 05:01:42;;;;;;;;;;;;;;;13.89;83.29;97775.97;5065983;28;19931;-60
2022/10/24 05:04:11;;;;;;;;;;;;;;;13.89;83.10;97767.78;5072707;28;20581;-58
2022/10/24 05:06:39;;;;;;;;;;;;;;;13.83;83.42;97769.13;5072312;28;19939;-61
2022/10/24 05:09:09;;;;;;;;;;;;;;;13.85;83.42;97762.22;5069774;28;19925;-60
2022/10/24 05:11:37;;;;;;;;;;;;;;;13.88;83.20;97767.00;5072200;28;20403;-60
2022/10/24 05:14:06;;;;;;;;;;;;;;;13.85;83.14;97767.69;5072456;28;19931;-61
2022/10/24 05:16:34;;;;;;;;;;;;;;;13.86;83.08;97768.47;5053047;28;20027;-60
2022/10/24 05:21:53;;;;;;;;;;;;;;;13.81;83.33;97766.75;5041694;28;19925;-60
2022/10/24 05:24:20;;;;;;;;;;;;;;;13.84;83.19;97771.53;5044487;28;19983;-60
2022/10/24 05:26:48;;;;;;;;;;;;;;;13.81;83.69;97757.75;5051438;28;20014;-60
2022/10/24 05:29:18;;;;;;;;;;;;;;;13.83;83.34;97752.75;5051020;28;19925;-59
2022/10/24 05:31:46;;;;;;;;;;;;;;;13.85;83.18;97754.03;5043981;28;19933;-60
2022/10/24 05:34:13;;;;;;;;;;;;;;;13.85;83.12;97747.78;5051409;28;19925;-60
2022/10/24 05:36:41;;;;;;;;;;;;;;;13.92;83.27;97741.75;5064260;28;20310;-59
2022/10/24 05:39:09;;;;;;;;;;;;;;;13.92;82.95;97748.00;5035595;28;19932;-60
2022/10/24 05:42:02;;;;;;;;;;;;;;;13.88;83.24;97752.53;5051524;28;20383;-60
2022/10/24 05:44:32;;;;;;;;;;;;;;;13.85;83.19;97743.09;5051460;28;19978;-60
2022/10/24 05:47:00;;;;;;;;;;;;;;;13.80;83.60;97734.31;5059920;28;19931;-60
2022/10/24 05:49:27;;;;;;;;;;;;;;;13.82;83.59;97732.06;5071256;28;19940;-60
2022/10/24 05:51:56;;;;;;;;;;;;;;;13.80;83.87;97731.59;5072905;28;20418;-59
2022/10/24 05:57:41;;;;;;;;;;;;;;;13.89;83.47;97729.56;5067540;28;19930;-60
2022/10/24 06:00:11;;;;;;;;;;;;;;;13.86;83.65;97735.72;5080978;28;19924;-60
2022/10/24 06:02:39;;;;;;;;;;;;;;;13.86;83.71;97735.72;5072658;28;20320;-61
2022/10/24 06:05:08;;;;;;;;;;;;;;;13.88;83.57;97734.22;5053134;28;20019;-61
2022/10/24 06:07:36;;;;;;;;;;;;;;;13.89;83.41;97737.75;5053320;28;20017;-61
2022/10/24 06:10:05;;;;;;;;;;;;;;;13.89;83.33;97746.75;5071296;28;19936;-61
2022/10/24 06:12:35;;;;;;;;;;;;;;;13.89;83.57;97740.47;5070643;28;19925;-60
2022/10/24 06:15:04;;;;;;;;;;;;;;;13.82;83.42;97735.56;5084420;28;19968;-57
2022/10/24 06:17:35;;;;;;;;;;;;;;;13.83;83.92;97747.28;5070821;28;19956;-61
2022/10/24 06:20:06;;;;;;;;;;;;;;;13.92;83.53;97749.94;5053880;28;19925;-60
2022/10/24 06:22:33;;;;;;;;;;;;;;;13.94;83.51;97764.84;5070510;28;20301;-61
2022/10/24 06:25:01;;;;;;;;;;;;;;;13.96;83.48;97761.81;5071227;28;19932;-60
2022/10/24 06:27:56;;;;;;;;;;;;;;;13.98;83.54;97763.03;5065458;28;19928;-60
2022/10/24 06:30:51;;;;;;;;;;;;;;;14.02;83.48;97765.91;5057092;28;19928;-59
2022/10/24 06:33:20;;;;;;;;;;;;;;;14.07;83.09;97769.22;5068874;28;19928;-60
2022/10/24 06:35:49;;;;;;;;;;;;;;;14.09;82.94;97772.41;5065554;28;19965;-60
2022/10/24 06:38:17;;;;;;;;;;;;;;;14.19;82.40;97759.47;5066848;28;19924;-60
2022/10/24 06:40:45;;;;;;;;;;;;;;;14.22;82.08;97769.69;5067490;28;19924;-61
2022/10/24 06:43:13;;;;;;;;;;;;;;;14.26;82.41;97776.09;5065568;28;19925;-61
2022/10/24 06:45:41;;;;;;;;;;;;;;;14.29;82.06;97769.97;5060169;28;19993;-60
2022/10/24 06:48:09;;;;;;;;;;;;;;;14.33;82.17;97770.88;5054904;28;20297;-60
2022/10/24 06:50:39;;;;;;;;;;;;;;;14.31;82.07;97767.66;5069884;28;19931;-60
2022/10/24 06:53:08;;;;;;;;;;;;;;;14.39;81.61;97769.53;5067490;28;19924;-61
2022/10/24 06:55:38;;;;;;;;;;;;;;;14.44;81.54;97765.78;5040415;28;19925;-61
2022/10/24 06:58:06;;;;;;;;;;;;;;;14.50;81.13;97770.69;5058609;28;19924;-61
2022/10/24 07:00:34;;;;;;;;;;;;;;;14.52;81.10;97773.88;5052790;28;19925;-60
2022/10/24 07:03:02;;;;;;;;;;;;;;;14.54;80.81;97765.34;5043885;28;19939;-60
2022/10/24 07:05:30;;;;;;;;;;;;;;;14.62;80.83;97767.19;5051109;28;19925;-60
2022/10/24 07:08:23;;;;;;;;;;;;;;;14.71;80.41;97769.81;5049307;28;20019;-62
2022/10/24 07:10:53;;;;;;;;;;;;;;;14.77;80.01;97766.50;5034465;28;19924;-59
2022/10/24 07:13:20;;;;;;;;;;;;;;;14.84;79.63;97777.66;5052033;28;19963;-61
2022/10/24 07:15:53;;;;;;;;;;;;;;;14.90;79.32;97783.69;5055076;28;19925;-60
2022/10/24 07:18:21;;;;;;;;;;;;;;;14.93;78.85;97793.97;5064616;28;19956;-60
2022/10/24 07:20:49;;;;;;;;;;;;;;;14.96;78.93;97806.13;5068880;28;20285;-61
2022/10/24 07:23:17;;;;;;;;;;;;;;;14.97;78.80;97822.25;5065659;28;19924;-60
2022/10/24 07:25:45;;;;;;;;;;;;;;;14.97;78.88;97844.13;5066008;28;19924;-61
2022/10/24 07:28:15;;;;;;;;;;;;;;;14.96;79.01;97864.38;5068078;28;20349;-61
2022/10/24 07:31:09;;;;;;;;;;;;;;;14.95;79.16;97898.34;5061072;28;19924;-60
2022/10/24 07:33:38;;;;;;;;;;;;;;;14.96;80.57;97926.50;5065721;28;19932;-60
2022/10/24 07:36:06;;;;;;;;;;;;;;;14.97;82.34;97915.25;5059859;28;19924;-58
2022/10/24 07:38:36;;;;;;;;;;;;;;;15.20;82.75;97989.50;5064123;28;19925;-61
2022/10/24 07:41:05;;;;;;;;;;;;;;;14.83;85.36;98022.22;5063350;28;19940;-61
2022/10/24 07:43:35;;;;;;;;;;;;;;;14.49;87.69;98001.47;5068255;28;19933;-61
2022/10/24 07:46:05;;;;;;;;;;;;;;;14.37;86.63;97979.50;5065592;28;19924;-61
2022/10/24 07:48:34;;;;;;;;;;;;;;;14.24;86.93;97975.91;5052572;28;20364;-62
2022/10/24 07:51:28;;;;;;;;;;;;;;;14.02;86.87;97977.03;5068832;28;19983;-62
2022/10/24 07:53:57;;;;;;;;;;;;;;;13.89;86.50;97976.13;5064424;28;19930;-62
2022/10/24 07:56:25;;;;;;;;;;;;;;;13.74;88.05;98000.47;5045953;28;20020;-61
2022/10/24 07:58:55;;;;;;;;;;;;;;;13.64;89.82;97985.31;5047591;28;20277;-61
2022/10/24 08:01:25;;;;;;;;;;;;;;;13.68;89.69;97974.50;5031679;28;19931;-61
2022/10/24 08:03:54;;;;;;;;;;;;;;;13.68;90.58;97985.44;5033949;28;19933;-61
2022/10/24 08:06:23;;;;;;;;;;;;;;;13.71;91.07;97996.50;5034195;28;19929;-61
2022/10/24 08:08:51;;;;;;;;;;;;;;;13.73;92.13;97990.69;5031837;28;19926;-61
2022/10/24 08:11:20;;;;;;;;;;;;;;;13.73;91.79;97993.44;5044974;28;19932;-61
2022/10/24 08:13:48;;;;;;;;;;;;;;;13.69;91.96;97982.38;5036483;28;19961;-61
2022/10/24 08:16:18;;;;;;;;;;;;;;;13.76;91.68;97965.47;5033193;28;20368;-61
2022/10/24 08:18:48;;;;;;;;;;;;;;;13.73;91.17;97944.28;5033673;28;20013;-62
2022/10/24 08:21:16;;;;;;;;;;;;;;;13.73;91.76;97938.81;5029374;28;19932;-62
2022/10/24 08:23:44;;;;;;;;;;;;;;;13.74;92.03;97941.25;5061610;28;20020;-60
2022/10/24 08:26:13;;;;;;;;;;;;;;;13.75;92.31;97942.84;5032853;28;19975;-61
2022/10/24 08:28:41;;;;;;;;;;;;;;;13.79;91.84;97918.38;5034558;28;20036;-61
2022/10/24 08:31:11;;;;;;;;;;;;;;;13.80;92.57;97928.19;5026325;28;19934;-60
2022/10/24 08:33:41;;;;;;;;;;;;;;;13.88;91.37;97895.34;5063102;28;20424;-61
2022/10/24 08:36:12;;;;;;;;;;;;;;;13.89;91.66;97883.28;5030843;28;19926;-61
2022/10/24 08:38:40;;;;;;;;;;;;;;;13.97;91.64;97867.97;5021339;28;20117;-60
2022/10/24 08:41:09;;;;;;;;;;;;;;;13.95;90.79;97856.56;5027000;28;19971;-58
2022/10/24 08:44:03;;;;;;;;;;;;;;;13.92;91.38;97873.63;5028858;28;20016;-61
2022/10/24 08:46:39;;;;;;;;;;;;;;;13.88;91.68;97856.31;5026907;28;19964;-59
2022/10/24 08:49:35;;;;;;;;;;;;;;;13.88;91.42;97859.03;5031090;28;19925;-60
2022/10/24 08:52:06;;;;;;;;;;;;;;;13.93;91.01;97856.13;5028478;28;19983;-61
2022/10/24 08:54:39;;;;;;;;;;;;;;;13.95;91.53;97859.31;5029645;28;20342;-62
2022/10/24 08:57:07;;;;;;;;;;;;;;;14.04;91.29;97878.34;5063718;28;19932;-61
2022/10/24 08:59:35;;;;;;;;;;;;;;;14.03;91.20;97874.03;5068941;28;19928;-61
2022/10/24 09:02:06;;;;;;;;;;;;;;;14.01;91.25;97873.53;5065407;28;20225;-62
2022/10/24 09:04:39;;;;;;;;;;;;;;;14.08;91.70;97877.34;5077468;28;19935;-62
2022/10/24 09:07:07;;;;;;;;;;;;;;;14.14;91.60;97881.47;5070591;28;19931;-61
2022/10/24 09:09:36;;;;;;;;;;;;;;;14.21;91.38;97877.41;5052043;28;20027;-61
2022/10/24 09:12:07;;;;;;;;;;;;;;;14.29;91.04;97877.31;5063950;28;19929;-62
2022/10/24 09:14:36;;;;;;;;;;;;;;;14.33;90.40;97882.94;5053050;28;20022;-61
2022/10/24 09:17:10;;;;;;;;;;;;;;;14.36;89.92;97883.03;5059234;28;20060;-61
2022/10/24 09:19:39;;;;;;;;;;;;;;;14.37;90.17;97875.63;5046625;28;19931;-62
2022/10/24 09:22:07;;;;;;;;;;;;;;;14.40;90.29;97891.38;5066075;28;20006;-60
2022/10/24 09:24:38;;;;;;;;;;;;;;;14.44;89.98;97892.31;5069985;28;19944;-59
2022/10/24 09:27:09;;;;;;;;;;;;;;;14.44;89.81;97889.56;5070759;28;19963;-59
2022/10/24 09:29:37;;;;;;;;;;;;;;;14.44;89.96;97859.50;5070632;28;19925;-59
2022/10/24 09:32:04;;;;;;;;;;;;;;;14.43;89.81;97852.41;5064207;28;20337;-59
2022/10/24 09:34:32;;;;;;;;;;;;;;;14.40;89.34;97842.19;5070835;28;19993;-60
2022/10/24 09:37:03;;;;;;;;;;;;;;;14.46;89.03;97840.81;5070364;28;19978;-59
2022/10/24 09:40:05;;;;;;;;;;;;;;;14.47;88.00;97864.31;5069541;28;20023;-59
2022/10/24 09:42:33;;;;;;;;;;;;;;;14.42;87.69;97878.16;5069542;28;19929;-60
2022/10/24 09:45:02;;;;;;;;;;;;;;;14.50;87.99;97868.31;5068919;28;19929;-59
2022/10/24 09:47:30;;;;;;;;;;;;;;;14.49;88.09;97856.59;5051425;28;19933;-60
2022/10/24 09:49:58;;;;;;;;;;;;;;;14.49;87.96;97850.28;5047587;28;21605;-59
2022/10/24 09:52:28;;;;;;;;;;;;;;;14.54;87.80;97870.03;5049407;28;20277;-59
2022/10/24 09:55:05;;;;;;;;;;;;;;;14.53;88.19;97895.75;5051729;28;19933;-60
2022/10/24 09:57:37;;;;;;;;;;;;;;;14.51;88.31;97916.38;5066416;28;19925;-59
2022/10/24 10:00:06;;;;;;;;;;;;;;;14.48;88.95;97903.38;5034086;28;19960;-58
2022/10/24 10:02:36;;;;;;;;;;;;;;;14.50;89.23;97901.91;5049074;28;19925;-59
2022/10/24 10:05:11;;;;;;;;;;;;;;;14.51;89.46;97900.78;5030945;28;19935;-59
2022/10/24 10:07:41;;;;;;;;;;;;;;;14.57;88.72;97888.47;5064282;28;19924;-60
2022/10/24 10:10:22;;;;;;;;;;;;;;;14.67;88.59;97899.00;5059535;28;19925;-59
2022/10/24 10:12:55;;;;;;;;;;;;;;;14.74;88.16;97894.91;5048383;28;19925;-60
2022/10/24 10:15:25;;;;;;;;;;;;;;;14.68;88.92;97892.38;5040277;28;20426;-58
2022/10/24 10:17:57;;;;;;;;;;;;;;;14.78;87.91;97887.63;5046432;28;19940;-59
2022/10/24 10:20:27;;;;;;;;;;;;;;;14.79;88.13;97886.47;5047071;28;20348;-60
2022/10/24 10:22:56;;;;;;;;;;;;;;;14.77;87.93;97888.78;5046746;28;20370;-60
2022/10/24 10:25:28;;;;;;;;;;;;;;;14.80;88.52;97880.66;5047362;28;20334;-58
2022/10/24 10:27:57;;;;;;;;;;;;;;;14.76;89.20;97882.50;5047056;28;20027;-59
2022/10/24 10:30:53;;;;;;;;;;;;;;;14.72;89.50;97883.50;5043373;28;19925;-59
2022/10/24 10:33:23;;;;;;;;;;;;;;;14.79;89.72;97886.47;5051104;28;20797;-59
2022/10/24 10:35:52;;;;;;;;;;;;;;;14.78;90.00;97904.81;5082826;28;20559;-57
2022/10/24 10:38:34;;;;;;;;;;;;;;;14.79;89.75;97887.28;5069154;28;19962;-59
2022/10/24 10:41:03;;;;;;;;;;;;;;;14.81;89.59;97873.28;5069101;28;19983;-58
2022/10/24 10:43:33;;;;;;;;;;;;;;;14.80;89.88;97888.06;5048142;28;19932;-59
2022/10/24 10:46:05;;;;;;;;;;;;;;;14.77;90.07;97883.31;5058139;28;20704;-60
2022/10/24 10:48:37;;;;;;;;;;;;;;;14.80;90.24;97874.41;5067426;28;19924;-59
2022/10/24 10:51:07;;;;;;;;;;;;;;;14.88;90.45;97878.97;5065661;28;19929;-59
2022/10/24 10:53:38;;;;;;;;;;;;;;;14.96;89.97;97882.75;5049740;28;20636;-59
2022/10/24 10:56:08;;;;;;;;;;;;;;;14.95;89.95;97873.75;5066568;28;19935;-60
2022/10/24 10:59:02;;;;;;;;;;;;;;;15.03;89.98;97894.72;5069985;28;19932;-59
2022/10/24 11:01:31;;;;;;;;;;;;;;;15.06;90.13;97899.50;5058648;28;19939;-60
2022/10/24 11:04:01;;;;;;;;;;;;;;;15.07;90.46;97905.78;5065406;28;19974;-59
2022/10/24 11:06:32;;;;;;;;;;;;;;;15.07;90.44;97923.00;5082128;28;20828;-59
2022/10/24 11:12:07;;;;;;;;;;;;;;;15.13;89.87;97935.34;5048733;28;20014;-60
2022/10/24 11:14:35;;;;;;;;;;;;;;;15.15;89.87;97944.00;5069456;28;20011;-59
2022/10/24 11:17:13;;;;;;;;;;;;;;;15.17;89.79;97930.75;5040488;28;19973;-59
2022/10/24 11:19:44;;;;;;;;;;;;;;;15.23;90.10;97930.53;5064040;28;19927;-58
2022/10/24 11:22:15;;;;;;;;;;;;;;;15.26;89.79;97919.72;5048497;28;19924;-59
2022/10/24 11:25:08;;;;;;;;;;;;;;;15.26;89.48;97900.56;5063911;28;19933;-59
2022/10/24 11:27:40;;;;;;;;;;;;;;;15.32;88.57;97866.34;5067881;28;19920;-59
2022/10/24 11:30:12;;;;;;;;;;;;;;;15.36;88.72;97848.09;5040585;28;19983;-58
2022/10/24 11:32:42;;;;;;;;;;;;;;;15.36;88.31;97872.72;5049035;28;19921;-59
2022/10/24 11:35:14;;;;;;;;;;;;;;;15.36;88.25;97893.81;5064812;28;20497;-59
2022/10/24 11:37:43;;;;;;;;;;;;;;;15.37;87.97;97879.00;5064698;28;19931;-59
2022/10/24 11:40:12;;;;;;;;;;;;;;;15.37;88.28;97889.94;5067316;28;20380;-58
2022/10/24 11:42:42;;;;;;;;;;;;;;;15.38;88.24;97888.78;5065661;28;19987;-57
2022/10/24 11:45:11;;;;;;;;;;;;;;;15.38;87.78;97881.38;5060006;28;19982;-59
2022/10/24 11:47:42;;;;;;;;;;;;;;;15.41;87.71;97885.38;5069022;28;19982;-60
2022/10/24 11:50:12;;;;;;;;;;;;;;;15.47;87.46;97884.00;5071211;28;19982;-59
2022/10/24 11:52:41;;;;;;;;;;;;;;;15.46;87.20;97876.94;5069884;28;19933;-59
2022/10/24 11:55:12;;;;;;;;;;;;;;;15.44;86.96;97879.19;5070728;28;20021;-60
2022/10/24 11:57:40;;;;;;;;;;;;;;;15.46;87.06;97875.00;5029423;28;20276;-58
2022/10/24 12:00:13;;;;;;;;;;;;;;;15.48;87.65;97874.66;5028184;28;19924;-60
2022/10/24 12:02:46;;;;;;;;;;;;;;;15.56;86.76;97875.69;5009440;28;19921;-60
2022/10/24 12:05:19;;;;;;;;;;;;;;;15.56;86.75;97887.44;5012740;28;19928;-60
2022/10/24 12:08:05;;;;;;;;;;;;;;;15.60;86.13;97876.56;5008424;28;19925;-60
2022/10/24 12:10:37;;;;;;;;;;;;;;;15.64;85.69;97869.28;5011087;28;19956;-60
2022/10/24 12:13:16;;;;;;;;;;;;;;;15.67;85.63;97872.16;5011472;28;19928;-60
2022/10/24 12:15:47;;;;;;;;;;;;;;;15.75;85.58;97870.41;5011748;28;19925;-60
2022/10/24 12:18:24;;;;;;;;;;;;;;;15.82;84.54;97864.34;5012142;28;19933;-60
2022/10/24 12:20:53;;;;;;;;;;;;;;;15.82;85.20;97850.63;5008047;28;19933;-58
2022/10/24 12:23:46;;;;;;;;;;;;;;;15.82;85.55;97854.19;5010371;28;19929;-60
2022/10/24 12:26:17;;;;;;;;;;;;;;;15.84;85.53;97862.06;5014280;28;19925;-60
2022/10/24 12:29:11;;;;;;;;;;;;;;;15.81;85.18;97854.53;5012749;28;19994;-60
2022/10/24 12:31:40;;;;;;;;;;;;;;;15.81;85.76;97849.84;5013795;28;20022;-60
2022/10/24 12:34:27;;;;;;;;;;;;;;;15.84;85.98;97851.91;5020735;28;19925;-59
2022/10/24 12:37:02;;;;;;;;;;;;;;;15.88;85.35;97843.78;5022966;28;19931;-61
2022/10/24 12:39:39;;;;;;;;;;;;;;;15.91;85.28;97848.56;5005583;28;19925;-59
2022/10/24 12:42:14;;;;;;;;;;;;;;;15.90;85.09;97842.28;5008524;28;20015;-58
2022/10/24 12:44:43;;;;;;;;;;;;;;;15.90;85.45;97836.00;5012112;28;20443;-60
2022/10/24 12:47:32;;;;;;;;;;;;;;;15.89;85.51;97837.16;5019407;28;20271;-60
2022/10/24 12:50:15;;;;;;;;;;;;;;;15.96;84.89;97842.84;5025330;28;20450;-59
2022/10/24 12:53:19;;;;;;;;;;;;;;;15.93;84.54;97843.53;5030813;28;19925;-61
2022/10/24 12:56:05;;;;;;;;;;;;;;;15.90;84.25;97838.75;5032246;28;19932;-61
2022/10/24 12:58:34;;;;;;;;;;;;;;;15.86;84.55;97846.84;5023554;28;19933;-61
2022/10/24 13:01:04;;;;;;;;;;;;;;;15.88;84.64;97841.06;5030155;28;19959;-60
2022/10/24 13:03:39;;;;;;;;;;;;;;;15.87;84.17;97855.88;5031850;28;19971;-60
2022/10/24 13:06:33;;;;;;;;;;;;;;;15.85;84.04;97850.75;5028814;28;19936;-60
2022/10/24 13:09:08;;;;;;;;;;;;;;;15.89;84.38;97839.91;5031674;28;19929;-60
2022/10/24 13:11:40;;;;;;;;;;;;;;;15.84;85.04;97837.41;5028465;28;20372;-61
2022/10/24 13:14:27;;;;;;;;;;;;;;;15.85;84.38;97828.84;5025252;28;20024;-59
2022/10/24 13:16:57;;;;;;;;;;;;;;;15.94;83.05;97832.22;5021404;28;20387;-60
2022/10/24 13:19:30;;;;;;;;;;;;;;;15.85;83.23;97839.00;5039061;28;20015;-60